Time,TemperatureF,DewpointF,PressureIn,WindDirection,WindDirectionDegrees,WindSpeedMPH,WindSpeedGustMPH,Humidity,HourlyPrecipIn,Conditions,Clouds,dailyrainin,SoftwareType,DateUTC
2013-01-03 00:33:00,-2.0,-6.0,-100.00,North,-999,-999.0,-999.0,82,-99.99,,,-99.99,,2013-01-03 07:33:00,
2013-01-03 01:33:00,0.0,-5.0,-100.00,North,-999,-999.0,-999.0,77,-99.99,,,-99.99,,2013-01-03 08:33:00,
2013-01-03 02:34:00,-4.0,-8.0,-100.00,North,-999,-999.0,-999.0,82,-99.99,,,-99.99,,2013-01-03 09:34:00,
2013-01-03 03:33:00,-1.0,-5.0,-100.00,North,-999,-999.0,-999.0,83,-99.99,,,-99.99,,2013-01-03 10:33:00,
2013-01-03 05:33:00,3.0,-2.0,-100.00,North,-999,-999.0,-999.0,80,-99.99,,,-99.99,,2013-01-03 12:33:00,
2013-01-03 06:33:00,-1.0,-5.0,-100.00,North,-999,-999.0,-999.0,82,-99.99,,,-99.99,,2013-01-03 13:33:00,
2013-01-03 07:33:00,-2.0,-5.0,-100.00,North,-999,-999.0,-999.0,86,-99.99,,,-99.99,,2013-01-03 14:33:00,
2013-01-03 08:34:00,-3.0,-6.0,-100.00,North,-999,-999.0,-999.0,84,-99.99,,,-99.99,,2013-01-03 15:34:00,
2013-01-03 09:34:00,0.0,-3.0,-100.00,North,-999,-999.0,-999.0,84,-99.99,,,-99.99,,2013-01-03 16:34:00,
2013-01-03 10:00:00,10.0,2.0,-100.00,North,-999,-999.0,-999.0,69,-99.99,,,-99.99,,2013-01-03 17:00:00,
2013-01-03 10:33:00,10.0,2.0,-100.00,North,-999,-999.0,-999.0,69,-99.99,,,-99.99,,2013-01-03 17:33:00,
2013-01-03 10:43:00,10.0,2.0,-100.00,North,-999,-999.0,-999.0,69,-99.99,,,-99.99,,2013-01-03 17:43:00,
2013-01-03 10:53:00,10.0,2.0,-100.00,North,-999,-999.0,-999.0,69,-99.99,,,-99.99,,2013-01-03 17:53:00,
2013-01-03 11:33:00,20.0,7.0,-100.00,North,-999,-999.0,-999.0,56,-99.99,,,-99.99,,2013-01-03 18:33:00,
2013-01-03 12:00:00,26.0,-4.0,-100.00,North,-999,-999.0,-999.0,26,-99.99,,,-99.99,,2013-01-03 19:00:00,
2013-01-03 12:56:00,26.0,-4.0,-100.00,North,-999,-999.0,-999.0,26,-99.99,,,-99.99,,2013-01-03 19:56:00,
2013-01-03 13:00:00,29.0,-5.0,-100.00,North,-999,-999.0,-999.0,22,-99.99,,,-99.99,,2013-01-03 20:00:00,
2013-01-03 13:33:00,29.0,-5.0,-100.00,North,-999,-999.0,-999.0,22,-99.99,,,-99.99,,2013-01-03 20:33:00,
2013-01-03 13:43:00,29.0,-5.0,-100.00,North,-999,-999.0,-999.0,22,-99.99,,,-99.99,,2013-01-03 20:43:00,
2013-01-03 13:53:00,29.0,-5.0,-100.00,North,-999,-999.0,-999.0,22,-99.99,,,-99.99,,2013-01-03 20:53:00,
2013-01-03 14:00:00,27.0,0.0,-100.00,North,-999,-999.0,-999.0,30,-99.99,,,-99.99,,2013-01-03 21:00:00,
2013-01-03 14:37:00,27.0,0.0,-100.00,North,-999,-999.0,-999.0,30,-99.99,,,-99.99,,2013-01-03 21:37:00,
2013-01-03 14:50:00,27.0,0.0,-100.00,North,-999,-999.0,-999.0,30,-99.99,,,-99.99,,2013-01-03 21:50:00,
2013-01-03 15:00:00,27.0,2.0,-100.00,North,-999,-999.0,-999.0,34,-99.99,,,-99.99,,2013-01-03 22:00:00,
2013-01-03 15:33:00,27.0,2.0,-100.00,North,-999,-999.0,-999.0,34,-99.99,,,-99.99,,2013-01-03 22:33:00,
2013-01-03 15:43:00,27.0,2.0,-100.00,North,-999,-999.0,-999.0,34,-99.99,,,-99.99,,2013-01-03 22:43:00,
2013-01-03 15:52:00,27.0,2.0,-100.00,North,-999,-999.0,-999.0,34,-99.99,,,-99.99,,2013-01-03 22:52:00,
2013-01-03 16:00:00,15.0,8.0,-100.00,North,-999,-999.0,-999.0,74,-99.99,,,-99.99,,2013-01-03 23:00:00,
2013-01-03 16:33:00,15.0,8.0,-100.00,North,-999,-999.0,-999.0,74,-99.99,,,-99.99,,2013-01-03 23:33:00,
2013-01-03 17:33:00,11.0,7.0,-100.00,North,-999,-999.0,-999.0,85,-99.99,,,-99.99,,2013-01-04 00:33:00,
2013-01-03 17:42:00,11.0,7.0,-100.00,North,-999,-999.0,-999.0,85,-99.99,,,-99.99,,2013-01-04 00:42:00,
2013-01-03 17:52:00,11.0,7.0,-100.00,North,-999,-999.0,-999.0,85,-99.99,,,-99.99,,2013-01-04 00:52:00,
2013-01-03 18:00:00,10.0,5.0,-100.00,North,-999,-999.0,-999.0,80,-99.99,,,-99.99,,2013-01-04 01:00:00,
2013-01-03 18:33:00,10.0,5.0,-100.00,North,-999,-999.0,-999.0,80,-99.99,,,-99.99,,2013-01-04 01:33:00,
2013-01-03 18:42:00,10.0,5.0,-100.00,North,-999,-999.0,-999.0,80,-99.99,,,-99.99,,2013-01-04 01:42:00,
2013-01-03 18:52:00,10.0,5.0,-100.00,North,-999,-999.0,-999.0,80,-99.99,,,-99.99,,2013-01-04 01:52:00,
2013-01-03 19:33:00,9.0,4.0,-100.00,North,-999,-999.0,-999.0,80,-99.99,,,-99.99,,2013-01-04 02:33:00,
2013-01-03 19:42:00,9.0,4.0,-100.00,North,-999,-999.0,-999.0,80,-99.99,,,-99.99,,2013-01-04 02:42:00,
2013-01-03 19:53:00,9.0,4.0,-100.00,North,-999,-999.0,-999.0,80,-99.99,,,-99.99,,2013-01-04 02:53:00,
2013-01-03 20:33:00,7.0,3.0,-100.00,North,-999,-999.0,-999.0,82,-99.99,,,-99.99,,2013-01-04 03:33:00,
2013-01-03 20:43:00,7.0,3.0,-100.00,North,-999,-999.0,-999.0,82,-99.99,,,-99.99,,2013-01-04 03:43:00,
2013-01-03 20:52:00,7.0,3.0,-100.00,North,-999,-999.0,-999.0,82,-99.99,,,-99.99,,2013-01-04 03:52:00,
2013-01-03 21:32:00,4.0,1.0,-100.00,North,-999,-999.0,-999.0,85,-99.99,,,-99.99,,2013-01-04 04:32:00,
2013-01-03 22:33:00,3.0,0.0,-100.00,North,-999,-999.0,-999.0,84,-99.99,,,-99.99,,2013-01-04 05:33:00,
2013-01-03 23:33:00,4.0,0.0,-100.00,North,-999,-999.0,-999.0,83,-99.99,,,-99.99,,2013-01-04 06:33:00,